createdAt,value
2022-12-24T00:01:05.985Z,73.05
2022-12-24T00:03:34.093Z,82.95
2022-12-24T00:06:06.552Z,69.68
2022-12-24T00:08:33.872Z,72.38
2022-12-24T00:11:01.259Z,76.68
2022-12-24T00:13:28.939Z,88.22
2022-12-24T00:15:56.215Z,62.72
2022-12-24T00:18:23.685Z,60.38
2022-12-24T00:20:51.482Z,74.97
2022-12-24T00:23:19.373Z,82.97
2022-12-24T00:25:47.129Z,68.25
2022-12-24T00:28:15.196Z,72.47
2022-12-24T00:30:43.676Z,66.72
2022-12-24T00:33:11.423Z,68.68
2022-12-24T00:35:40.005Z,67.07
2022-12-24T00:38:08.225Z,74.57
2022-12-24T00:40:35.964Z,71.65
2022-12-24T00:43:03.302Z,69.55
2022-12-24T00:45:30.593Z,72.32
2022-12-24T00:47:57.889Z,89.90
2022-12-24T00:50:25.347Z,83.53
2022-12-24T00:52:52.635Z,53.53
2022-12-24T00:55:20.429Z,69.20
2022-12-24T00:57:47.762Z,83.15
2022-12-24T01:00:17.817Z,60.88
2022-12-24T01:02:45.356Z,63.25
2022-12-24T01:05:13.253Z,70.00
2022-12-24T01:07:44.899Z,65.57
2022-12-24T01:10:14.591Z,62.65
2022-12-24T01:12:41.961Z,65.30
2022-12-24T01:15:10.159Z,56.50
2022-12-24T01:17:37.632Z,56.80
2022-12-24T01:20:07.286Z,54.15
2022-12-24T01:22:34.870Z,60.13
2022-12-24T01:25:02.167Z,59.08
2022-12-24T01:27:29.532Z,49.22
2022-12-24T01:29:56.872Z,52.53
2022-12-24T01:32:24.220Z,48.03
2022-12-24T01:34:51.464Z,57.78
2022-12-24T01:37:18.781Z,46.10
2022-12-24T01:39:46.133Z,55.40
2022-12-24T01:42:40.474Z,56.20
2022-12-24T01:45:54.994Z,52.85
2022-12-24T01:48:22.503Z,53.38
2022-12-24T01:50:53.732Z,54.95
2022-12-24T01:53:21.069Z,52.28
2022-12-24T01:55:48.854Z,59.03
2022-12-24T01:58:17.110Z,58.08
2022-12-24T02:00:44.673Z,59.78
2022-12-24T02:03:12.358Z,71.47
2022-12-24T02:05:50.158Z,69.50
2022-12-24T02:08:18.436Z,65.53
2022-12-24T02:10:47.114Z,70.60
2022-12-24T02:13:16.249Z,73.13
2022-12-24T02:15:56.016Z,72.93
2022-12-24T02:18:39.764Z,82.68
2022-12-24T02:21:44.829Z,74.28
2022-12-24T02:24:23.487Z,67.47
2022-12-24T02:27:19.844Z,83.53
2022-12-24T02:30:02.303Z,69.28
2022-12-24T02:32:36.840Z,77.70
2022-12-24T02:35:20.621Z,85.75
2022-12-24T02:38:17.145Z,84.47
2022-12-24T02:41:25.620Z,73.32
2022-12-24T02:43:54.940Z,77.80
2022-12-24T02:46:26.334Z,77.97
2022-12-24T02:48:53.748Z,78.30
2022-12-24T02:51:25.293Z,76.25
2022-12-24T02:53:53.072Z,86.60
2022-12-24T02:56:48.070Z,79.90
2022-12-24T02:59:32.125Z,72.65
2022-12-24T03:02:24.701Z,72.13
2022-12-24T03:05:09.494Z,65.97
2022-12-24T03:07:48.829Z,77.70
2022-12-24T03:10:32.177Z,61.40
2022-12-24T03:13:05.017Z,68.10
2022-12-24T03:18:02.133Z,74.82
2022-12-24T03:21:29.869Z,66.25
2022-12-24T03:23:57.643Z,68.93
2022-12-24T03:26:25.827Z,56.35
2022-12-24T03:28:53.541Z,64.97
2022-12-24T03:31:21.215Z,63.28
2022-12-24T03:33:48.887Z,62.47
2022-12-24T03:36:16.826Z,64.32
2022-12-24T03:38:44.227Z,52.95
2022-12-24T03:41:11.530Z,71.85
2022-12-24T03:43:38.771Z,87.60
2022-12-24T03:46:07.914Z,64.20
2022-12-24T03:48:35.927Z,71.22
2022-12-24T03:51:04.001Z,70.18
2022-12-24T03:53:31.543Z,73.80
2022-12-24T03:55:59.163Z,68.95
2022-12-24T03:58:26.515Z,67.43
2022-12-24T04:00:54.994Z,72.60
2022-12-24T04:03:22.403Z,77.55
2022-12-24T04:05:59.458Z,74.28
2022-12-24T04:08:26.723Z,82.72
2022-12-24T04:10:54.024Z,74.35
2022-12-24T04:13:21.289Z,78.65
2022-12-24T04:16:01.549Z,70.45
2022-12-24T04:18:29.434Z,80.68
2022-12-24T04:20:56.900Z,86.10
2022-12-24T04:23:24.798Z,77.57
2022-12-24T04:25:52.099Z,81.25
2022-12-24T04:28:19.431Z,80.40
2022-12-24T04:30:46.685Z,82.28
2022-12-24T04:33:14.040Z,87.50
2022-12-24T04:35:41.931Z,81.25
2022-12-24T04:38:10.305Z,86.88
2022-12-24T04:40:37.698Z,74.38
2022-12-24T04:43:04.995Z,88.07
2022-12-24T04:45:33.018Z,87.22
2022-12-24T04:48:00.425Z,88.25
2022-12-24T04:50:27.795Z,82.95
2022-12-24T04:52:55.131Z,98.18
2022-12-24T04:55:22.467Z,98.15
2022-12-24T04:57:52.869Z,100.82
2022-12-24T05:00:20.860Z,94.07
2022-12-24T05:02:48.279Z,85.70
2022-12-24T05:05:18.317Z,92.22
2022-12-24T05:07:45.614Z,86.30
2022-12-24T05:10:12.940Z,83.25
2022-12-24T05:12:40.214Z,111.55
2022-12-24T05:15:08.127Z,95.90
2022-12-24T05:17:35.563Z,81.13
2022-12-24T05:20:03.001Z,89.30
2022-12-24T05:22:48.951Z,97.05
2022-12-24T05:25:35.216Z,89.47
2022-12-24T05:28:02.580Z,95.90
2022-12-24T05:30:29.919Z,93.80
2022-12-24T05:32:57.277Z,82.90
2022-12-24T05:35:24.551Z,94.57
2022-12-24T05:37:51.852Z,87.55
2022-12-24T05:40:19.298Z,82.07
2022-12-24T05:42:46.677Z,95.80
2022-12-24T05:45:14.020Z,87.95
2022-12-24T05:47:43.478Z,104.25
2022-12-24T05:50:11.665Z,81.18
2022-12-24T05:52:38.925Z,83.65
2022-12-24T05:55:06.730Z,99.35
2022-12-24T05:57:34.017Z,95.80
2022-12-24T06:00:01.312Z,85.07
2022-12-24T06:02:28.751Z,82.32
2022-12-24T06:04:56.197Z,91.97
2022-12-24T06:07:23.528Z,85.30
2022-12-24T06:09:50.785Z,92.13
2022-12-24T06:12:18.329Z,89.47
2022-12-24T06:14:45.687Z,75.65
2022-12-24T06:17:13.011Z,83.32
2022-12-24T06:19:40.334Z,84.13
2022-12-24T06:22:07.656Z,78.35
2022-12-24T06:24:34.957Z,83.22
2022-12-24T06:27:02.328Z,79.47
2022-12-24T06:29:29.720Z,89.60
2022-12-24T06:31:57.058Z,78.18
2022-12-24T06:34:24.590Z,77.65
2022-12-24T06:36:52.020Z,79.25
2022-12-24T06:39:19.329Z,75.40
2022-12-24T06:41:46.648Z,73.90
2022-12-24T06:44:13.921Z,60.28
2022-12-24T06:46:41.269Z,71.65
2022-12-24T06:49:08.616Z,74.55
2022-12-24T06:51:36.030Z,70.70
2022-12-24T06:54:03.404Z,76.43
2022-12-24T06:56:30.630Z,68.78
2022-12-24T06:59:04.887Z,63.53
2022-12-24T07:01:32.851Z,79.25
2022-12-24T07:04:00.346Z,69.28
2022-12-24T07:06:29.768Z,76.53
2022-12-24T07:08:57.189Z,63.45
2022-12-24T07:11:25.746Z,68.22
2022-12-24T07:13:53.154Z,73.25
2022-12-24T07:16:20.752Z,87.10
2022-12-24T07:18:48.402Z,68.38
2022-12-24T07:21:15.817Z,82.80
2022-12-24T07:23:43.229Z,78.40
2022-12-24T07:26:11.474Z,84.38
2022-12-24T07:28:38.871Z,77.53
2022-12-24T07:31:07.388Z,89.40
2022-12-24T07:33:34.768Z,84.05
2022-12-24T07:36:10.413Z,77.88
2022-12-24T07:38:38.919Z,77.50
2022-12-24T07:41:06.325Z,77.05
2022-12-24T07:43:34.169Z,72.57
2022-12-24T07:46:01.553Z,59.80
2022-12-24T07:48:29.947Z,66.35
2022-12-24T07:50:58.257Z,64.95
2022-12-24T07:53:27.035Z,69.45
2022-12-24T07:55:54.931Z,71.00
2022-12-24T07:58:23.191Z,72.07
2022-12-24T08:00:55.313Z,72.85
2022-12-24T08:03:23.072Z,71.45
2022-12-24T08:05:50.539Z,64.22
2022-12-24T08:08:17.839Z,72.72
2022-12-24T08:10:46.131Z,71.40
2022-12-24T08:13:14.963Z,75.20
2022-12-24T08:15:43.155Z,64.82
2022-12-24T08:18:11.330Z,67.82
2022-12-24T08:20:40.173Z,62.05
2022-12-24T08:23:08.415Z,64.53
2022-12-24T08:25:35.889Z,63.45
2022-12-24T08:28:04.587Z,69.68
2022-12-24T08:30:50.712Z,70.78
2022-12-24T08:33:18.818Z,71.47
2022-12-24T08:35:50.651Z,62.42
2022-12-24T08:38:18.044Z,65.95
2022-12-24T08:40:48.801Z,59.65
2022-12-24T08:43:17.493Z,68.15
2022-12-24T08:45:45.317Z,72.95
2022-12-24T08:48:14.071Z,67.15
2022-12-24T08:50:42.232Z,60.97
2022-12-24T08:53:13.069Z,69.07
2022-12-24T08:55:40.859Z,62.92
2022-12-24T08:58:08.226Z,67.53
2022-12-24T09:00:38.342Z,67.38
2022-12-24T09:03:06.856Z,58.95
2022-12-24T09:05:34.187Z,61.63
2022-12-24T09:08:02.356Z,71.43
2022-12-24T09:10:30.128Z,62.45
2022-12-24T09:13:00.264Z,57.55
2022-12-24T09:15:27.650Z,62.80
2022-12-24T09:17:55.053Z,66.28
2022-12-24T09:20:22.934Z,62.40
2022-12-24T09:22:50.450Z,74.07
2022-12-24T09:25:17.820Z,58.83
2022-12-24T09:27:45.073Z,60.40
2022-12-24T09:30:13.137Z,60.03
2022-12-24T09:32:40.551Z,63.20
2022-12-24T09:35:09.620Z,75.00
2022-12-24T09:37:48.305Z,63.33
2022-12-24T09:40:37.655Z,61.03
2022-12-24T09:43:27.792Z,63.78
2022-12-24T09:46:04.026Z,67.13
2022-12-24T09:48:33.515Z,56.83
2022-12-24T09:51:12.653Z,56.95
2022-12-24T09:54:04.209Z,62.83
2022-12-24T09:56:45.260Z,62.40
2022-12-24T09:59:18.865Z,55.25
2022-12-24T10:01:48.315Z,67.95
2022-12-24T10:04:19.753Z,63.25
2022-12-24T10:07:10.635Z,55.67
2022-12-24T10:09:52.888Z,59.53
2022-12-24T10:12:33.166Z,59.90
2022-12-24T10:15:27.916Z,56.42
2022-12-24T10:18:14.936Z,64.72
2022-12-24T10:21:21.419Z,67.35
2022-12-24T10:24:14.230Z,63.13
2022-12-24T10:26:53.836Z,62.53
2022-12-24T10:29:31.106Z,67.97
2022-12-24T10:32:29.069Z,65.30
2022-12-24T10:35:04.464Z,68.60
2022-12-24T10:37:32.131Z,59.33
2022-12-24T10:40:00.613Z,67.25
2022-12-24T10:42:50.589Z,56.92
2022-12-24T10:45:22.113Z,57.28
2022-12-24T10:47:56.313Z,55.97
2022-12-24T10:50:35.514Z,55.95
2022-12-24T10:53:28.727Z,59.05
2022-12-24T10:56:07.210Z,58.95
2022-12-24T10:58:35.663Z,63.38
2022-12-24T11:01:04.004Z,59.53
2022-12-24T11:03:34.384Z,64.25
2022-12-24T11:06:12.009Z,55.88
2022-12-24T11:08:42.256Z,56.22
2022-12-24T11:11:20.391Z,55.78
2022-12-24T11:13:50.556Z,58.45
2022-12-24T11:16:26.889Z,59.22
2022-12-24T11:18:58.896Z,73.38
2022-12-24T11:21:58.307Z,66.72
2022-12-24T11:24:29.305Z,55.55
2022-12-24T11:27:28.672Z,57.45
2022-12-24T11:30:18.297Z,53.70
2022-12-24T11:32:48.092Z,69.35
2022-12-24T11:35:22.653Z,64.97
2022-12-24T11:38:12.343Z,71.03
2022-12-24T11:40:45.116Z,66.05
2022-12-24T11:43:22.797Z,62.45
2022-12-24T11:45:55.551Z,64.00
2022-12-24T11:51:05.171Z,64.57
2022-12-24T11:53:56.802Z,63.10
2022-12-24T11:56:38.691Z,62.15
2022-12-24T11:59:33.057Z,67.40
2022-12-24T12:02:19.587Z,57.42
2022-12-24T12:04:51.307Z,50.30
2022-12-24T12:07:46.648Z,60.78
2022-12-24T12:10:36.120Z,59.75
2022-12-24T12:13:15.543Z,61.10
2022-12-24T12:15:53.788Z,63.38
2022-12-24T12:18:27.296Z,56.17
2022-12-24T12:21:10.196Z,53.85
2022-12-24T12:23:48.117Z,50.13
2022-12-24T12:26:57.449Z,59.95
2022-12-24T12:29:42.080Z,57.95
2022-12-24T12:32:21.325Z,52.40
2022-12-24T12:35:15.302Z,61.72
2022-12-24T12:37:47.671Z,47.88
2022-12-24T12:40:16.545Z,61.63
2022-12-24T12:43:42.478Z,57.90
2022-12-24T12:46:32.672Z,55.80
2022-12-24T12:49:21.128Z,58.08
2022-12-24T12:52:13.279Z,50.78
2022-12-24T12:54:52.749Z,58.42
2022-12-24T12:57:24.170Z,62.55
2022-12-24T12:59:59.911Z,55.88
2022-12-24T13:02:43.713Z,51.75
2022-12-24T13:05:43.671Z,53.72
2022-12-24T13:08:10.981Z,49.03
2022-12-24T13:10:44.906Z,51.25
2022-12-24T13:13:40.171Z,52.15
2022-12-24T13:16:40.120Z,59.80
2022-12-24T13:19:26.399Z,49.28
2022-12-24T13:21:55.864Z,53.67
2022-12-24T13:24:28.997Z,51.88
2022-12-24T13:27:12.045Z,49.70
2022-12-24T13:30:09.798Z,57.55
2022-12-24T13:32:56.682Z,53.60
2022-12-24T13:35:25.128Z,55.20
2022-12-24T13:37:52.880Z,56.72
2022-12-24T13:40:29.375Z,49.75
2022-12-24T13:43:02.389Z,57.75
2022-12-24T13:45:30.123Z,57.97
2022-12-24T13:47:59.989Z,59.67
2022-12-24T13:50:36.919Z,58.53
2022-12-24T13:53:08.283Z,52.00
2022-12-24T13:55:35.611Z,67.07
2022-12-24T13:58:05.277Z,55.00
2022-12-24T14:00:43.873Z,61.40
2022-12-24T14:03:14.723Z,58.38
2022-12-24T14:06:08.226Z,58.08
2022-12-24T14:08:49.965Z,56.38
2022-12-24T14:11:20.059Z,61.67
2022-12-24T14:14:09.242Z,53.33
2022-12-24T14:16:49.633Z,54.00
2022-12-24T14:19:20.413Z,46.03
2022-12-24T14:22:05.215Z,61.30
2022-12-24T14:24:37.666Z,71.60
2022-12-24T14:27:17.674Z,53.15
2022-12-24T14:29:57.308Z,52.95
2022-12-24T14:32:27.070Z,53.38
2022-12-24T14:35:23.039Z,51.40
2022-12-24T14:37:52.886Z,60.13
2022-12-24T14:40:49.310Z,44.72
2022-12-24T14:43:35.945Z,51.13
2022-12-24T14:46:28.832Z,62.20
2022-12-24T14:49:05.198Z,47.10
2022-12-24T14:51:50.590Z,65.28
2022-12-24T14:54:39.298Z,50.20
2022-12-24T14:57:15.740Z,59.95
2022-12-24T15:00:02.387Z,67.43
2022-12-24T15:02:52.906Z,53.15
2022-12-24T15:05:24.722Z,56.33
2022-12-24T15:08:04.814Z,52.45
2022-12-24T15:11:03.312Z,53.72
2022-12-24T15:13:36.788Z,55.42
2022-12-24T15:16:14.628Z,61.15
2022-12-24T15:22:33.098Z,54.20
2022-12-24T15:25:07.575Z,62.95
2022-12-24T15:27:40.141Z,66.22
2022-12-24T15:30:17.204Z,56.85
2022-12-24T15:32:52.918Z,64.07
2022-12-24T15:35:47.732Z,53.90
2022-12-24T15:38:41.525Z,56.03
2022-12-24T15:41:18.172Z,57.60
2022-12-24T15:43:47.632Z,54.25
2022-12-24T15:46:23.483Z,67.45
2022-12-24T15:48:51.717Z,54.63
2022-12-24T15:51:34.664Z,54.25
2022-12-24T15:54:11.921Z,62.65
2022-12-24T15:56:44.447Z,63.10
2022-12-24T15:59:13.159Z,59.85
2022-12-24T16:01:40.815Z,66.65
2022-12-24T16:04:16.906Z,56.53
2022-12-24T16:06:58.519Z,56.55
2022-12-24T16:09:45.750Z,63.60
2022-12-24T16:12:21.662Z,62.78
2022-12-24T16:14:52.493Z,68.63
2022-12-24T16:17:25.415Z,58.30
2022-12-24T16:22:32.194Z,66.95
2022-12-24T16:25:23.034Z,65.97
2022-12-24T16:27:55.531Z,73.15
2022-12-24T16:30:24.558Z,78.45
2022-12-24T16:32:51.982Z,81.10
2022-12-24T16:35:33.426Z,73.97
2022-12-24T16:38:00.779Z,66.28
2022-12-24T16:40:28.399Z,81.05
2022-12-24T16:43:15.817Z,80.40
2022-12-24T16:45:44.226Z,75.38
2022-12-24T16:48:22.491Z,68.15
2022-12-24T16:50:50.891Z,87.13
2022-12-24T16:53:19.432Z,75.18
2022-12-24T16:55:47.899Z,74.35
2022-12-24T16:58:16.100Z,76.05
2022-12-24T17:00:44.653Z,72.03
2022-12-24T17:03:12.916Z,83.55
2022-12-24T17:05:45.114Z,77.70
2022-12-24T17:08:13.047Z,79.55
2022-12-24T17:10:40.513Z,70.85
2022-12-24T17:13:08.049Z,69.75
2022-12-24T17:15:35.743Z,72.22
2022-12-24T17:18:03.147Z,74.65
2022-12-24T17:20:30.445Z,73.03
2022-12-24T17:22:58.920Z,69.63
2022-12-24T17:25:26.233Z,63.78
2022-12-24T17:27:53.557Z,68.10
2022-12-24T17:30:20.897Z,76.68
2022-12-24T17:32:48.204Z,73.38
2022-12-24T17:35:16.043Z,75.78
2022-12-24T17:37:43.659Z,73.40
2022-12-24T17:40:11.833Z,76.82
2022-12-24T17:42:39.384Z,75.32
2022-12-24T17:45:07.295Z,89.68
2022-12-24T17:47:34.649Z,75.47
2022-12-24T17:50:01.940Z,88.53
2022-12-24T17:52:29.418Z,83.88
2022-12-24T17:54:56.696Z,92.75
2022-12-24T17:57:24.031Z,74.28
2022-12-24T17:59:52.397Z,75.85
2022-12-24T18:02:19.800Z,84.40
2022-12-24T18:04:47.283Z,69.70
2022-12-24T18:07:14.566Z,81.40
2022-12-24T18:09:45.005Z,74.75
2022-12-24T18:12:13.380Z,77.95
2022-12-24T18:14:41.339Z,70.30
2022-12-24T18:17:09.880Z,71.25
2022-12-24T18:19:37.169Z,78.07
2022-12-24T18:22:04.496Z,79.32
2022-12-24T18:24:31.748Z,80.55
2022-12-24T18:26:59.243Z,79.78
2022-12-24T18:29:26.529Z,83.45
2022-12-24T18:31:55.417Z,77.05
2022-12-24T18:34:26.367Z,91.00
2022-12-24T18:36:56.051Z,75.18
2022-12-24T18:39:23.415Z,73.78
2022-12-24T18:41:51.190Z,79.28
2022-12-24T18:44:24.563Z,74.45
2022-12-24T18:46:53.582Z,77.50
2022-12-24T18:49:21.030Z,74.97
2022-12-24T18:51:48.377Z,67.63
2022-12-24T18:54:17.057Z,71.93
2022-12-24T18:56:44.399Z,63.45
2022-12-24T18:59:12.825Z,64.45
2022-12-24T19:01:40.234Z,73.75
2022-12-24T19:04:07.715Z,68.85
2022-12-24T19:06:35.129Z,70.47
2022-12-24T19:09:02.894Z,75.40
2022-12-24T19:11:32.624Z,72.15
2022-12-24T19:14:00.379Z,76.25
2022-12-24T19:16:30.112Z,72.82
2022-12-24T19:18:57.624Z,59.70
2022-12-24T19:21:27.625Z,76.88
2022-12-24T19:23:55.080Z,63.20
2022-12-24T19:26:22.768Z,68.93
2022-12-24T19:28:50.459Z,77.43
2022-12-24T19:31:24.235Z,64.68
2022-12-24T19:33:56.326Z,73.63
2022-12-24T19:36:29.227Z,60.87
2022-12-24T19:41:26.498Z,64.65
2022-12-24T19:43:56.497Z,72.85
2022-12-24T19:46:26.515Z,66.13
2022-12-24T19:48:56.596Z,72.38
2022-12-24T19:51:24.482Z,74.53
2022-12-24T19:54:01.895Z,78.03
2022-12-24T19:56:32.791Z,80.97
2022-12-24T19:59:01.720Z,80.63
2022-12-24T20:01:31.153Z,89.00
2022-12-24T20:03:59.121Z,78.10
2022-12-24T20:06:30.279Z,92.40
2022-12-24T20:09:06.860Z,71.95
2022-12-24T20:11:34.914Z,64.43
2022-12-24T20:14:04.289Z,71.10
2022-12-24T20:16:35.685Z,87.65
2022-12-24T20:19:05.191Z,88.45
2022-12-24T20:21:33.864Z,74.88
2022-12-24T20:24:01.577Z,73.82
2022-12-24T20:26:33.125Z,75.53
2022-12-24T20:29:04.675Z,69.30
2022-12-24T20:31:32.278Z,65.50
2022-12-24T20:34:02.354Z,66.22
2022-12-24T20:36:31.263Z,75.95
2022-12-24T20:39:20.623Z,80.22
2022-12-24T20:41:48.186Z,75.07
2022-12-24T20:47:33.844Z,80.00
2022-12-24T20:50:09.061Z,79.10
2022-12-24T20:52:36.443Z,77.15
2022-12-24T20:55:03.821Z,73.80
2022-12-24T20:57:36.329Z,65.78
2022-12-24T21:05:25.990Z,77.78
2022-12-24T21:08:09.455Z,84.57
2022-12-24T21:10:37.767Z,83.60
2022-12-24T21:13:05.687Z,81.68
2022-12-24T21:15:36.148Z,79.22
2022-12-24T21:18:10.536Z,68.32
2022-12-24T21:20:40.499Z,74.57
2022-12-24T21:23:07.953Z,78.93
2022-12-24T21:25:36.851Z,74.45
2022-12-24T21:28:04.351Z,68.70
2022-12-24T21:30:32.551Z,75.05
2022-12-24T21:32:59.975Z,74.22
2022-12-24T21:35:27.305Z,82.80
2022-12-24T21:37:54.675Z,81.85
2022-12-24T21:40:22.003Z,67.68
2022-12-24T21:42:49.329Z,68.13
2022-12-24T21:45:16.705Z,72.20
2022-12-24T21:47:44.686Z,67.72
2022-12-24T21:50:32.368Z,66.35
2022-12-24T21:53:18.944Z,67.85
2022-12-24T21:55:46.303Z,78.85
2022-12-24T21:58:13.798Z,62.28
2022-12-24T22:00:41.204Z,72.10
2022-12-24T22:03:08.566Z,69.38
2022-12-24T22:05:36.031Z,65.00
2022-12-24T22:08:21.968Z,73.63
2022-12-24T22:11:08.213Z,71.03
2022-12-24T22:13:35.634Z,70.13
2022-12-24T22:16:03.016Z,75.63
2022-12-24T22:18:30.302Z,69.47
2022-12-24T22:20:57.557Z,62.88
2022-12-24T22:23:24.871Z,71.93
2022-12-24T22:25:52.271Z,71.70
2022-12-24T22:28:20.083Z,78.85
2022-12-24T22:30:47.544Z,75.45
2022-12-24T22:33:14.943Z,69.18
2022-12-24T22:35:42.517Z,70.05
2022-12-24T22:38:10.490Z,63.40
2022-12-24T22:40:39.997Z,67.05
2022-12-24T22:43:07.363Z,62.67
2022-12-24T22:45:34.649Z,52.80
2022-12-24T22:48:02.057Z,75.82
2022-12-24T22:50:29.393Z,68.82
2022-12-24T22:53:05.305Z,69.43
2022-12-24T22:55:32.569Z,70.78
2022-12-24T22:58:00.000Z,67.03
2022-12-24T23:00:44.628Z,55.97
2022-12-24T23:03:12.185Z,53.72
2022-12-24T23:05:40.092Z,64.18
2022-12-24T23:08:08.220Z,61.72
2022-12-24T23:10:36.292Z,61.40
2022-12-24T23:13:22.656Z,57.50
2022-12-24T23:15:50.048Z,63.47
2022-12-24T23:18:17.378Z,65.70
2022-12-24T23:20:45.432Z,61.83
2022-12-24T23:23:14.059Z,71.75
2022-12-24T23:25:41.411Z,60.47
2022-12-24T23:28:08.710Z,59.83
2022-12-24T23:30:37.054Z,72.53
2022-12-24T23:33:04.717Z,65.82
2022-12-24T23:35:32.163Z,62.22
2022-12-24T23:37:59.652Z,55.03
2022-12-24T23:40:26.984Z,63.58
2022-12-24T23:42:54.253Z,61.47
2022-12-24T23:45:21.538Z,56.03
2022-12-24T23:47:48.782Z,60.38
2022-12-24T23:50:16.136Z,68.40
2022-12-24T23:52:43.405Z,64.22
2022-12-24T23:55:10.787Z,67.88
2022-12-24T23:57:38.144Z,58.85
